Time;durP1;ratioP1;P1;durP2;ratioP2;P2;SDS_P1;SDS_P2;PMS_P1;PMS_P2;Temp;Humidity;BMP_temperature;BMP_pressure;BME280_temperature;BME280_humidity;BME280_pressure;Samples;Min_cycle;Max_cycle;Signal;HPM_P1;HPM_P2
2022/05/25 00:02:17;;;;;;;20.48;18.30;;;;;;;20.41;71.30;99540.00;5030645;28;20466;-47
2022/05/25 00:04:44;;;;;;;19.40;17.58;;;;;;;20.49;71.29;99553.78;5030396;28;20031;-47
2022/05/25 00:07:10;;;;;;;20.35;18.33;;;;;;;20.55;71.14;99551.09;5029995;28;20053;-48
2022/05/25 00:09:35;;;;;;;18.67;16.70;;;;;;;20.75;70.26;99556.44;5030414;28;20064;-48
2022/05/25 00:12:01;;;;;;;18.30;16.50;;;;;;;20.95;69.31;99560.19;5030348;28;20108;-47
2022/05/25 00:14:27;;;;;;;18.60;16.80;;;;;;;21.05;68.42;99557.44;5030214;28;20490;-47
2022/05/25 00:16:52;;;;;;;18.48;16.55;;;;;;;20.96;68.66;99559.91;5029651;28;20027;-47
2022/05/25 00:22:02;;;;;;;18.73;16.13;;;;;;;20.81;69.08;99573.47;5030675;28;20058;-48
2022/05/25 00:24:28;;;;;;;18.25;16.33;;;;;;;20.88;68.28;99569.38;5030259;28;20454;-50
2022/05/25 00:26:53;;;;;;;18.80;17.10;;;;;;;20.84;68.44;99571.03;5029012;28;20660;-48
2022/05/25 00:29:18;;;;;;;18.83;16.83;;;;;;;20.81;68.91;99568.88;5030443;28;20654;-48
2022/05/25 00:31:44;;;;;;;18.38;16.55;;;;;;;20.66;69.10;99560.81;5029890;28;20082;-49
2022/05/25 00:34:09;;;;;;;18.17;16.42;;;;;;;20.61;69.51;99574.34;5029778;28;20021;-48
2022/05/25 00:36:36;;;;;;;18.58;16.90;;;;;;;20.91;68.52;99572.66;5046745;28;20086;-51
2022/05/25 00:39:02;;;;;;;17.23;15.57;;;;;;;20.99;67.98;99567.47;5049657;28;20021;-51
2022/05/25 00:41:28;;;;;;;17.67;16.08;;;;;;;20.98;68.06;99565.84;5050164;28;20104;-48
2022/05/25 00:43:55;;;;;;;19.50;15.30;;;;;;;20.84;67.98;99571.03;5049987;28;20108;-49
2022/05/25 00:46:22;;;;;;;18.15;16.25;;;;;;;20.86;68.21;99574.25;5050283;28;20094;-48
2022/05/25 00:48:52;;;;;;;17.55;15.98;;;;;;;20.54;69.30;99571.06;5049638;28;20102;-47
2022/05/25 00:51:50;;;;;;;16.95;15.25;;;;;;;20.23;70.49;99574.63;5050178;28;20060;-50
2022/05/25 00:54:34;;;;;;;17.73;15.85;;;;;;;19.90;71.63;99568.69;5040487;28;20051;-50
2022/05/25 00:57:05;;;;;;;19.48;17.05;;;;;;;19.90;72.19;99581.41;5049364;28;20029;-48
2022/05/25 00:59:33;;;;;;;18.60;16.85;;;;;;;20.06;71.87;99572.19;5049652;28;20021;-50
2022/05/25 01:01:59;;;;;;;19.63;17.77;;;;;;;20.34;70.75;99582.75;5049962;28;20191;-49
2022/05/25 01:04:25;;;;;;;19.20;17.35;;;;;;;20.04;72.24;99592.47;5049742;28;20358;-50
2022/05/25 01:07:03;;;;;;;20.45;18.50;;;;;;;20.14;71.38;99587.06;5048038;28;20037;-49
2022/05/25 01:09:54;;;;;;;19.60;17.60;;;;;;;19.66;72.96;99589.94;5049720;28;20063;-50
2022/05/25 01:12:48;;;;;;;19.05;17.30;;;;;;;19.33;74.66;99594.72;5049719;28;20029;-47
2022/05/25 01:15:26;;;;;;;20.73;17.92;;;;;;;19.39;74.63;99598.25;5048566;28;20037;-48
2022/05/25 01:18:13;;;;;;;20.10;18.08;;;;;;;19.56;74.32;99597.25;5049721;28;20035;-47
2022/05/25 01:20:45;;;;;;;20.80;18.75;;;;;;;19.40;74.96;99591.81;5049322;28;20024;-47
2022/05/25 01:23:48;;;;;;;18.42;16.63;;;;;;;19.53;74.70;99598.56;5049726;28;20031;-48
2022/05/25 01:26:38;;;;;;;18.98;16.63;;;;;;;19.68;73.82;99611.28;5049447;28;20059;-46
2022/05/25 01:29:28;;;;;;;18.00;16.17;;;;;;;19.81;73.03;99613.50;5049571;28;20048;-49
2022/05/25 01:32:02;;;;;;;21.17;19.10;;;;;;;19.61;74.00;99614.25;5049012;28;20037;-47
2022/05/25 01:34:43;;;;;;;21.55;19.55;;;;;;;19.99;72.77;99617.59;5049320;28;20047;-48
2022/05/25 01:37:20;;;;;;;;;;;;;;;20.30;71.65;99614.91;5030198;28;20057;-50
2022/05/25 01:39:56;;;;;;;24.58;22.23;;;;;;;20.04;72.58;99622.19;5033179;28;19996;-51
2022/05/25 01:42:29;;;;;;;22.25;20.20;;;;;;;20.07;72.45;99621.66;5032882;28;20366;-49
2022/05/25 01:45:02;;;;;;;20.58;18.58;;;;;;;19.82;73.04;99625.94;5032981;28;20021;-49
2022/05/25 01:47:30;;;;;;;20.13;16.73;;;;;;;19.49;73.74;99622.56;5033015;28;20112;-47
2022/05/25 01:50:10;;;;;;;19.35;17.35;;;;;;;19.55;73.40;99626.09;5032769;28;20026;-48
2022/05/25 01:52:43;;;;;;;18.70;16.90;;;;;;;19.40;73.84;99618.78;5044735;28;20029;-48
2022/05/25 01:55:14;;;;;;;18.42;16.60;;;;;;;19.55;72.98;99626.09;5051832;28;20021;-47
2022/05/25 01:57:44;;;;;;;17.27;14.80;;;;;;;19.63;72.16;99622.06;5052477;28;20044;-47
2022/05/25 02:00:24;;;;;;;14.77;13.38;;;;;;;19.27;72.88;99627.38;5052734;28;20366;-48
2022/05/25 02:05:40;;;;;;;16.00;14.05;;;;;;;18.75;73.50;99635.16;5052691;28;20118;-48
2022/05/25 02:08:12;;;;;;;14.15;12.50;;;;;;;18.57;73.63;99632.88;5052454;28;20491;-48
2022/05/25 02:11:16;;;;;;;12.75;11.55;;;;;;;18.86;71.88;99638.75;5052850;28;20033;-48
2022/05/25 02:14:10;;;;;;;11.55;9.63;;;;;;;18.66;71.98;99639.41;5030704;28;20041;-48
2022/05/25 02:16:38;;;;;;;11.95;8.02;;;;;;;18.45;72.43;99645.69;5052066;28;20040;-49
2022/05/25 02:19:31;;;;;;;9.82;7.40;;;;;;;18.55;72.47;99645.78;5052496;28;20029;-49
2022/05/25 02:22:03;;;;;;;8.77;7.85;;;;;;;18.76;71.60;99647.53;5052523;28;20063;-48
2022/05/25 02:24:38;;;;;;;9.88;8.38;;;;;;;18.92;70.47;99644.97;5051868;28;20048;-49
2022/05/25 02:27:12;;;;;;;13.48;8.35;;;;;;;18.87;71.05;99653.06;5052172;28;20067;-48
2022/05/25 02:29:44;;;;;;;12.82;8.57;;;;;;;19.07;69.90;99641.56;5052166;28;20116;-49
2022/05/25 02:32:22;;;;;;;9.55;7.82;;;;;;;19.21;69.35;99649.97;5052121;28;20037;-50
2022/05/25 02:34:50;;;;;;;11.57;8.63;;;;;;;18.93;70.07;99649.31;5048364;28;20033;-51
2022/05/25 02:37:20;;;;;;;13.50;10.60;;;;;;;18.93;70.53;99660.91;5031934;28;20029;-51
2022/05/25 02:39:46;;;;;;;13.80;10.50;;;;;;;19.13;69.80;99654.81;5032050;28;20491;-49
2022/05/25 02:42:14;;;;;;;16.38;12.10;;;;;;;19.35;68.82;99661.94;5032123;28;20104;-48
2022/05/25 02:44:40;;;;;;;17.42;12.57;;;;;;;19.23;69.25;99662.16;5032075;28;20030;-49
2022/05/25 02:47:05;;;;;;;23.98;14.60;;;;;;;19.05;69.86;99663.38;5031952;28;20111;-48
2022/05/25 02:49:31;;;;;;;21.23;16.00;;;;;;;18.72;71.13;99676.09;5031496;28;20098;-48
2022/05/25 02:51:56;;;;;;;21.15;13.55;;;;;;;18.52;72.10;99673.25;5032363;28;20036;-48
2022/05/25 02:54:22;;;;;;;16.10;13.38;;;;;;;18.95;70.76;99676.81;5031563;28;20069;-48
2022/05/25 02:56:49;;;;;;;16.92;13.02;;;;;;;18.88;71.20;99684.31;5031401;28;20030;-48
2022/05/25 02:59:14;;;;;;;15.85;11.63;;;;;;;18.74;71.82;99675.84;5031690;28;20500;-47
2022/05/25 03:01:40;;;;;;;15.05;10.27;;;;;;;18.86;71.34;99681.06;5031734;28;20021;-49
2022/05/25 03:04:05;;;;;;;16.98;9.85;;;;;;;18.98;71.22;99678.97;5031645;28;20030;-48
2022/05/25 03:06:31;;;;;;;13.70;10.15;;;;;;;18.92;71.35;99682.72;5031375;28;20022;-47
2022/05/25 03:08:57;;;;;;;10.57;9.15;;;;;;;19.00;70.99;99687.66;5031506;28;20033;-49
2022/05/25 03:11:24;;;;;;;20.05;13.15;;;;;;;18.65;71.90;99688.97;5030868;28;20030;-49
2022/05/25 03:13:49;;;;;;;24.30;15.90;;;;;;;18.53;72.94;99691.84;5029789;28;20033;-49
2022/05/25 03:16:18;;;;;;;13.50;10.80;;;;;;;18.52;73.33;99689.41;5030369;28;20092;-51
2022/05/25 03:18:44;;;;;;;10.52;9.07;;;;;;;18.56;72.66;99685.13;5029539;28;20141;-49
2022/05/25 03:21:09;;;;;;;10.90;8.20;;;;;;;18.46;73.19;99696.63;5031030;28;20430;-48
2022/05/25 03:23:36;;;;;;;12.25;8.38;;;;;;;17.99;74.62;99708.03;5031255;28;20032;-48
2022/05/25 03:26:01;;;;;;;12.25;7.97;;;;;;;18.24;73.86;99702.13;5031291;28;20397;-49
2022/05/25 03:28:27;;;;;;;14.23;7.93;;;;;;;18.05;73.74;99706.22;5030649;28;20517;-48
2022/05/25 03:30:54;;;;;;;11.32;7.50;;;;;;;17.81;74.48;99714.56;5030720;28;20041;-48
2022/05/25 03:33:19;;;;;;;12.55;7.60;;;;;;;17.52;76.89;99717.44;5030992;28;20033;-48
2022/05/25 03:35:45;;;;;;;14.88;7.95;;;;;;;17.83;75.49;99720.50;5030478;28;20051;-48
2022/05/25 03:38:10;;;;;;;12.05;8.18;;;;;;;17.98;74.87;99720.69;5030533;28;20030;-47
2022/05/25 03:40:37;;;;;;;13.00;8.07;;;;;;;17.73;75.18;99720.38;5030505;28;20113;-49
2022/05/25 03:43:04;;;;;;;14.45;8.10;;;;;;;17.83;74.82;99704.34;5030950;28;20413;-48
2022/05/25 03:45:30;;;;;;;13.18;7.43;;;;;;;18.27;73.56;99725.03;5030760;28;20106;-48
2022/05/25 03:47:55;;;;;;;11.60;6.82;;;;;;;18.49;72.56;99730.34;5050473;28;20028;-48
2022/05/25 03:50:23;;;;;;;15.40;7.70;;;;;;;18.25;73.39;99740.63;5050359;28;20056;-49
2022/05/25 03:52:49;;;;;;;12.57;7.35;;;;;;;18.45;72.51;99732.75;5050336;28;20155;-50
2022/05/25 03:55:14;;;;;;;12.50;6.82;;;;;;;18.49;72.25;99722.28;5048228;28;20041;-50
2022/05/25 03:57:40;;;;;;;14.52;7.15;;;;;;;18.53;71.98;99734.97;5050040;28;20029;-48
2022/05/25 04:00:06;;;;;;;14.65;7.38;;;;;;;18.21;73.49;99748.41;5049908;28;20032;-48
2022/05/25 04:02:31;;;;;;;10.80;6.68;;;;;;;18.06;74.71;99745.53;5050026;28;20028;-48
2022/05/25 04:05:09;;;;;;;15.88;7.40;;;;;;;18.13;74.23;99746.16;5050268;28;20017;-51
2022/05/25 04:07:38;;;;;;;16.30;7.18;;;;;;;18.23;73.93;99748.94;5050342;28;20181;-49
2022/05/25 04:10:05;;;;;;;15.95;7.28;;;;;;;18.27;74.15;99754.66;5049950;28;20409;-48
2022/05/25 04:12:32;;;;;;;13.82;7.35;;;;;;;18.12;74.55;99748.03;5049659;28;20086;-50
2022/05/25 04:14:57;;;;;;;17.35;7.97;;;;;;;18.50;72.65;99759.72;5038898;28;20029;-48
2022/05/25 04:17:23;;;;;;;14.85;7.60;;;;;;;18.73;71.88;99758.59;5030201;28;20036;-47
2022/05/25 04:19:50;;;;;;;13.90;7.35;;;;;;;18.67;71.78;99761.50;5030139;28;20044;-48
2022/05/25 04:22:16;;;;;;;13.25;7.50;;;;;;;18.74;71.05;99754.81;5029503;28;20021;-49
2022/05/25 04:24:41;;;;;;;14.07;7.63;;;;;;;18.58;71.94;99760.31;5029796;28;20185;-50
2022/05/25 04:27:06;;;;;;;15.05;7.90;;;;;;;18.19;73.47;99760.50;5029404;28;20478;-50
2022/05/25 04:29:36;;;;;;;13.00;7.32;;;;;;;18.37;73.91;99746.66;5046009;28;20395;-50
2022/05/25 04:32:02;;;;;;;16.63;7.78;;;;;;;18.61;71.91;99760.63;5048837;28;20028;-48
2022/05/25 04:34:28;;;;;;;12.07;7.80;;;;;;;18.19;72.76;99763.19;5049506;28;20052;-50
2022/05/25 04:36:53;;;;;;;25.13;15.65;;;;;;;17.92;74.10;99758.59;5049163;28;20432;-48
2022/05/25 04:39:18;;;;;;;20.40;11.98;;;;;;;18.00;73.80;99763.53;5048877;28;20024;-50
2022/05/25 04:41:44;;;;;;;11.63;8.30;;;;;;;17.76;74.81;99765.63;5048453;28;20400;-50
2022/05/25 04:44:09;;;;;;;14.65;9.00;;;;;;;17.68;74.78;99763.38;5048482;28;20484;-51
2022/05/25 04:46:35;;;;;;;12.98;8.70;;;;;;;17.90;74.09;99768.78;5048136;28;20054;-47
2022/05/25 04:49:00;;;;;;;14.18;8.63;;;;;;;17.70;74.00;99774.69;5048435;28;20032;-48
2022/05/25 04:51:29;;;;;;;13.77;9.10;;;;;;;17.55;74.14;99765.38;5047765;28;20029;-47
2022/05/25 04:53:55;;;;;;;13.45;9.40;;;;;;;17.56;74.38;99763.50;5047587;28;20086;-50
2022/05/25 04:59:04;;;;;;;15.98;9.27;;;;;;;17.60;74.54;99780.75;5028791;28;20584;-48
2022/05/25 05:01:30;;;;;;;11.57;9.02;;;;;;;17.57;74.35;99771.31;5028821;28;20025;-46
2022/05/25 05:03:56;;;;;;;13.52;9.27;;;;;;;17.65;74.11;99790.75;5028419;28;20048;-38
2022/05/25 05:06:22;;;;;;;12.85;9.98;;;;;;;17.76;73.86;99789.84;5032514;28;20044;-38
2022/05/25 05:08:47;;;;;;;11.80;9.77;;;;;;;17.93;72.94;99793.34;5048049;28;20492;-38
2022/05/25 05:11:16;;;;;;;13.93;9.63;;;;;;;17.90;73.15;99799.22;5049512;28;20020;-38
2022/05/25 05:13:41;;;;;;;18.15;10.00;;;;;;;17.80;73.43;99796.38;5052989;28;20688;-38
2022/05/25 05:16:09;;;;;;;16.80;9.23;;;;;;;17.99;73.10;99791.50;5053614;28;20114;-38
2022/05/25 05:18:36;;;;;;;13.68;9.45;;;;;;;18.10;72.07;99813.97;5052587;28;20029;-37
2022/05/25 05:21:01;;;;;;;15.32;9.27;;;;;;;18.02;72.68;99804.47;5052232;28;20024;-37
2022/05/25 05:23:27;;;;;;;11.43;8.95;;;;;;;17.73;73.72;99801.13;5052698;28;20029;-37
2022/05/25 05:25:52;;;;;;;11.60;9.02;;;;;;;17.68;73.48;99803.72;5052326;28;20109;-36
2022/05/25 05:28:23;;;;;;;12.38;8.82;;;;;;;17.70;73.83;99799.72;5052028;28;20104;-39
2022/05/25 05:30:54;;;;;;;13.40;8.57;;;;;;;17.89;72.49;99802.16;5052066;28;20060;-37
2022/05/25 05:33:24;;;;;;;11.80;8.52;;;;;;;18.10;72.13;99795.13;5052191;28;20555;-38
2022/05/25 05:35:57;;;;;;;14.23;8.82;;;;;;;18.25;71.51;99807.97;5039909;28;20504;-39
2022/05/25 05:38:24;;;;;;;12.85;8.43;;;;;;;18.10;72.09;99812.09;5032275;28;20021;-38
2022/05/25 05:40:52;;;;;;;14.85;8.57;;;;;;;18.19;71.67;99817.06;5032007;28;20514;-38
2022/05/25 05:43:17;;;;;;;11.85;7.85;;;;;;;18.20;71.82;99814.13;5032161;28;20026;-37
2022/05/25 05:45:45;;;;;;;13.05;8.30;;;;;;;18.54;70.34;99816.59;5031908;28;20028;-39
2022/05/25 05:48:21;;;;;;;13.68;8.15;;;;;;;18.76;69.21;99809.28;5032234;28;20045;-38
2022/05/25 05:50:54;;;;;;;12.23;8.13;;;;;;;18.72;69.81;99816.25;5032057;28;20102;-37
2022/05/25 05:53:20;;;;;;;15.63;8.50;;;;;;;18.60;70.14;99817.47;5031753;28;20030;-38
2022/05/25 05:55:49;;;;;;;15.13;8.60;;;;;;;18.86;69.62;99807.78;5031604;28;20107;-37
2022/05/25 05:58:14;;;;;;;15.80;8.50;;;;;;;19.05;69.25;99810.91;5031453;28;20025;-38
2022/05/25 06:00:40;;;;;;;20.20;9.43;;;;;;;19.28;68.02;99812.41;5032282;28;20021;-39
2022/05/25 06:03:06;;;;;;;17.02;8.98;;;;;;;18.85;70.37;99806.13;5032154;28;20410;-38
2022/05/25 06:05:32;;;;;;;19.48;10.55;;;;;;;18.88;70.17;99814.53;5031785;28;20087;-38
2022/05/25 06:08:07;;;;;;;14.98;9.40;;;;;;;18.90;70.77;99809.69;5031526;28;20159;-38
2022/05/25 06:10:33;;;;;;;20.00;11.48;;;;;;;18.91;70.29;99795.16;5031585;28;20027;-38
2022/05/25 06:12:59;;;;;;;19.80;10.15;;;;;;;18.94;70.94;99827.00;5031880;28;20025;-39
2022/05/25 06:20:52;;;;;;;31.15;14.70;;;;;;;19.09;71.10;99822.78;5031492;28;20567;-39
2022/05/25 06:23:18;;;;;;;29.20;16.90;;;;;;;18.85;72.09;99825.00;5031397;28;20022;-38
2022/05/25 06:25:43;;;;;;;26.15;17.10;;;;;;;18.91;72.28;99830.22;5030784;28;20481;-38
2022/05/25 06:28:08;;;;;;;29.17;17.98;;;;;;;19.19;71.17;99832.84;5031600;28;20477;-37
2022/05/25 06:30:34;;;;;;;29.77;15.57;;;;;;;19.23;71.04;99834.78;5029773;28;20513;-38
2022/05/25 06:32:59;;;;;;;28.80;14.85;;;;;;;19.23;71.33;99837.50;5031372;28;20032;-38
2022/05/25 06:35:26;;;;;;;23.58;14.32;;;;;;;19.30;71.24;99826.47;5038874;28;20048;-38
2022/05/25 06:37:51;;;;;;;26.10;13.57;;;;;;;19.05;72.31;99830.59;5051268;28;20032;-38
2022/05/25 06:40:17;;;;;;;30.23;14.95;;;;;;;19.06;72.53;99837.63;5051659;28;20546;-37
2022/05/25 06:42:42;;;;;;;26.80;15.27;;;;;;;19.30;71.47;99827.25;5051652;28;20036;-38
2022/05/25 06:45:10;;;;;;;29.08;14.95;;;;;;;19.40;70.73;99839.19;5050840;28;20033;-39
2022/05/25 06:47:37;;;;;;;29.73;13.45;;;;;;;18.62;73.58;99826.13;5050815;28;20485;-38
2022/05/25 06:50:03;;;;;;;25.63;12.88;;;;;;;18.83;73.70;99846.03;5050948;28;20028;-38
2022/05/25 06:52:29;;;;;;;32.78;13.73;;;;;;;18.50;74.97;99845.13;5050314;28;20033;-38
2022/05/25 06:54:55;;;;;;;35.53;14.13;;;;;;;18.79;74.28;99851.09;5050934;28;20029;-37
2022/05/25 06:57:21;;;;;;;32.00;13.05;;;;;;;18.74;74.54;99840.25;5049978;28;20036;-37
2022/05/25 06:59:47;;;;;;;31.25;14.25;;;;;;;19.04;73.86;99847.84;5050586;28;20029;-37
2022/05/25 07:02:12;;;;;;;31.75;14.05;;;;;;;19.28;72.63;99847.50;5050322;28;20028;-39
2022/05/25 07:04:38;;;;;;;27.27;13.90;;;;;;;19.30;72.38;99851.53;5050589;28;20029;-38
2022/05/25 07:07:04;;;;;;;34.53;14.40;;;;;;;19.70;71.66;99855.63;5038868;28;20029;-38
2022/05/25 07:09:31;;;;;;;28.23;14.45;;;;;;;19.85;70.27;99852.19;5029194;28;20033;-38
2022/05/25 07:11:58;;;;;;;34.58;15.77;;;;;;;19.99;70.33;99843.63;5029615;28;20025;-38
2022/05/25 07:14:24;;;;;;;28.10;15.45;;;;;;;20.63;68.06;99840.63;5029345;28;20026;-38
2022/05/25 07:16:50;;;;;;;29.27;16.20;;;;;;;21.01;66.28;99853.91;5031754;28;20477;-39
2022/05/25 07:19:15;;;;;;;29.55;16.45;;;;;;;20.94;66.41;99856.06;5043593;28;20480;-37
2022/05/25 07:21:41;;;;;;;33.55;17.48;;;;;;;21.18;65.81;99857.16;5048666;28;20116;-38
2022/05/25 07:24:07;;;;;;;28.48;15.75;;;;;;;20.61;67.13;99859.00;5033067;28;20188;-38
2022/05/25 07:26:33;;;;;;;26.98;15.60;;;;;;;20.26;68.88;99848.88;5040890;28;20422;-39
2022/05/25 07:28:58;;;;;;;25.70;14.73;;;;;;;20.73;67.50;99852.53;5029762;28;20021;-37
2022/05/25 07:31:38;;;;;;;21.77;12.90;;;;;;;20.69;67.12;99855.78;5044573;28;20052;-39
2022/05/25 07:34:14;;;;;;;24.23;12.20;;;;;;;20.36;68.83;99857.00;5033373;28;20033;-38
2022/05/25 07:36:41;;;;;;;21.38;12.55;;;;;;;20.54;68.17;99863.81;5039341;28;20102;-38
2022/05/25 07:39:13;;;;;;;22.13;12.90;;;;;;;20.73;67.29;99860.63;5038395;28;20125;-37
2022/05/25 07:41:41;;;;;;;22.23;13.30;;;;;;;20.78;67.31;99866.06;5040811;28;20386;-38
2022/05/25 07:44:13;;;;;;;24.50;13.23;;;;;;;21.26;65.56;99859.31;5034351;28;20029;-37
2022/05/25 07:46:38;;;;;;;21.42;12.75;;;;;;;21.46;64.42;99868.56;5040360;28;20131;-38
2022/05/25 07:49:04;;;;;;;26.00;12.77;;;;;;;21.84;63.89;99877.16;5041937;28;20540;-38
2022/05/25 07:51:29;;;;;;;22.40;10.90;;;;;;;22.19;62.39;99870.78;5033433;28;20022;-37
2022/05/25 07:53:57;;;;;;;17.02;10.20;;;;;;;22.15;62.71;99872.44;5045870;28;20466;-39
2022/05/25 07:56:32;;;;;;;19.42;9.95;;;;;;;22.15;62.28;99880.56;5036140;28;20195;-38
2022/05/25 07:59:10;;;;;;;17.55;9.32;;;;;;;21.37;64.02;99870.16;5038572;28;20498;-37
2022/05/25 08:07:15;;;;;;;16.83;10.13;;;;;;;21.58;64.28;99863.66;5034424;28;20090;-37
2022/05/25 08:09:41;;;;;;;17.25;10.05;;;;;;;21.98;63.07;99867.34;5040909;28;20017;-37
2022/05/25 08:12:07;;;;;;;16.98;10.32;;;;;;;21.83;63.37;99868.19;5042376;28;20044;-37
2022/05/25 08:14:33;;;;;;;25.55;10.98;;;;;;;22.14;62.97;99873.53;5029948;28;20036;-37
2022/05/25 08:16:59;;;;;;;17.90;10.13;;;;;;;21.92;62.76;99881.19;5040042;28;20013;-38
2022/05/25 08:19:25;;;;;;;17.77;10.18;;;;;;;21.51;64.58;99883.97;5039302;28;20458;-39
2022/05/25 08:21:52;;;;;;;20.63;10.27;;;;;;;21.40;64.75;99877.72;5039460;28;20124;-38
2022/05/25 08:24:18;;;;;;;17.20;10.45;;;;;;;21.80;63.38;99885.00;5043176;28;20025;-38
2022/05/25 08:26:44;;;;;;;19.70;11.70;;;;;;;21.99;63.41;99898.78;5036578;28;20020;-36
2022/05/25 08:29:10;;;;;;;24.50;11.38;;;;;;;22.73;60.96;99885.47;5038830;28;20025;-38
2022/05/25 08:31:36;;;;;;;18.35;10.88;;;;;;;23.07;59.43;99902.91;5038462;28;20103;-38
2022/05/25 08:34:03;;;;;;;16.23;9.52;;;;;;;22.70;59.64;99902.28;5036453;28;20018;-37
2022/05/25 08:36:29;;;;;;;14.13;9.65;;;;;;;22.96;59.51;99908.38;5034947;28;20021;-39
2022/05/25 08:38:55;;;;;;;16.40;9.25;;;;;;;22.94;59.37;99909.72;5038157;28;20404;-38
2022/05/25 08:41:36;;;;;;;15.85;9.70;;;;;;;23.00;59.05;99898.56;5039214;28;20139;-38
2022/05/25 08:44:04;;;;;;;19.05;9.07;;;;;;;23.05;58.73;99905.88;5039438;28;20036;-37
2022/05/25 08:46:32;;;;;;;17.83;9.25;;;;;;;23.34;57.58;99897.81;5037640;28;20024;-37
2022/05/25 08:49:03;;;;;;;14.30;8.90;;;;;;;23.55;57.30;99897.59;5037091;28;20029;-36
2022/05/25 08:51:30;;;;;;;16.02;9.05;;;;;;;23.59;56.46;99902.19;5037176;28;20029;-38
2022/05/25 08:54:00;;;;;;;13.30;8.88;;;;;;;23.67;56.44;99902.66;5037262;28;20392;-37
2022/05/25 08:57:07;;;;;;;13.82;9.23;;;;;;;24.07;54.92;99898.72;5036919;28;20481;-38
2022/05/25 09:00:04;;;;;;;12.43;8.40;;;;;;;23.81;55.75;99900.91;4996501;28;20424;-37
2022/05/25 09:02:39;;;;;;;11.75;7.80;;;;;;;24.15;54.56;99895.38;4975704;28;20037;-38
2022/05/25 09:05:17;;;;;;;12.75;7.90;;;;;;;24.94;52.81;99902.22;5027750;28;20091;-38
2022/05/25 09:08:08;;;;;;;12.45;7.90;;;;;;;24.92;52.52;99899.81;5037402;28;20136;-37
2022/05/25 09:10:38;;;;;;;13.27;8.48;;;;;;;25.25;51.18;99891.72;5037653;28;20044;-38
2022/05/25 09:13:04;;;;;;;11.75;8.07;;;;;;;25.16;51.34;99898.91;5037602;28;20060;-38
2022/05/25 09:15:34;;;;;;;12.93;8.90;;;;;;;24.90;52.12;99893.88;5036812;28;20401;-38
2022/05/25 09:18:08;;;;;;;12.25;9.10;;;;;;;24.93;52.17;99895.97;5038149;28;20017;-36
2022/05/25 09:20:53;;;;;;;15.95;9.63;;;;;;;24.81;52.86;99892.09;5036355;28;20115;-37
2022/05/25 09:23:19;;;;;;;15.85;9.65;;;;;;;25.29;51.02;99891.94;5034718;28;20037;-38
2022/05/25 09:25:46;;;;;;;15.20;9.68;;;;;;;25.68;50.30;99890.69;5036640;28;20036;-37
2022/05/25 09:28:16;;;;;;;10.93;8.10;;;;;;;25.40;50.87;99890.66;5038974;28;20073;-36
2022/05/25 09:30:46;;;;;;;12.90;8.80;;;;;;;25.30;50.63;99888.06;5036833;28;20403;-37
2022/05/25 09:33:39;;;;;;;13.07;9.00;;;;;;;25.60;50.28;99892.19;5039509;28;20513;-37
2022/05/25 09:36:14;;;;;;;15.38;8.90;;;;;;;26.11;49.87;99888.53;5037438;28;20025;-38
2022/05/25 09:38:42;;;;;;;13.55;9.68;;;;;;;26.01;49.22;99898.81;5047605;28;20475;-38
2022/05/25 09:41:29;;;;;;;16.08;9.93;;;;;;;25.69;50.50;99892.31;5048145;28;20586;-38
2022/05/25 09:43:58;;;;;;;14.45;10.05;;;;;;;26.23;48.69;99882.53;5041192;28;20473;-38
2022/05/25 09:46:28;;;;;;;;;;;;;;;26.48;47.86;99883.94;5028647;28;20116;-38
2022/05/25 09:49:02;;;;;;;16.75;11.57;;;;;;;26.64;47.54;99886.38;5028413;28;19908;-38
2022/05/25 09:51:50;;;;;;;17.23;12.18;;;;;;;26.79;47.33;99882.47;5028764;28;20034;-37
2022/05/25 09:54:30;;;;;;;17.52;12.52;;;;;;;27.09;47.43;99883.66;5028391;28;20485;-38
2022/05/25 09:57:35;;;;;;;19.95;12.32;;;;;;;27.80;45.44;99875.56;5027514;28;20087;-37
2022/05/25 10:00:10;;;;;;;20.50;12.50;;;;;;;28.02;45.44;99879.38;5030171;28;20038;-37
2022/05/25 10:02:41;;;;;;;15.45;11.23;;;;;;;27.67;45.08;99880.00;5031782;28;20025;-38
2022/05/25 10:05:23;;;;;;;20.38;12.73;;;;;;;27.82;44.81;99870.59;5031290;28;20632;-38
2022/05/25 10:07:53;;;;;;;16.85;12.10;;;;;;;28.39;44.30;99867.06;5047602;28;20028;-39
2022/05/25 10:10:43;;;;;;;17.80;12.70;;;;;;;28.38;44.02;99867.38;5051402;28;20062;-38
2022/05/25 10:13:19;;;;;;;21.67;15.02;;;;;;;27.80;45.02;99864.63;5051306;28;20025;-38
2022/05/25 10:15:51;;;;;;;20.33;14.05;;;;;;;27.73;44.72;99858.03;5051501;28;20017;-38
2022/05/25 10:18:31;;;;;;;22.42;15.38;;;;;;;28.10;44.19;99861.38;5051180;28;20542;-38
2022/05/25 10:20:57;;;;;;;20.27;15.13;;;;;;;28.69;43.12;99859.06;5050995;28;20051;-38
2022/05/25 10:23:25;;;;;;;20.58;14.85;;;;;;;27.99;43.79;99869.88;5051900;28;20017;-38
2022/05/25 10:25:56;;;;;;;20.15;15.43;;;;;;;27.06;45.99;99873.38;5050354;28;20025;-38
2022/05/25 10:28:33;;;;;;;23.33;15.98;;;;;;;26.42;48.02;99876.97;5050922;28;20401;-37
2022/05/25 10:37:06;;;;;;;24.42;16.63;;;;;;;27.60;45.80;99865.19;5028145;28;20095;-38
2022/05/25 10:39:33;;;;;;;21.80;16.48;;;;;;;27.69;45.56;99864.09;5031283;28;20029;-38
2022/05/25 10:42:09;;;;;;;20.27;15.32;;;;;;;27.79;44.36;99854.81;5032023;28;20029;-37
2022/05/25 10:44:59;;;;;;;21.90;16.02;;;;;;;28.19;44.05;99851.25;5031689;28;20025;-38
2022/05/25 10:47:43;;;;;;;21.70;16.02;;;;;;;28.81;42.87;99842.81;5031091;28;20489;-38
2022/05/25 10:50:19;;;;;;;22.02;15.55;;;;;;;28.60;43.13;99850.06;5031082;28;20029;-39
2022/05/25 10:53:12;;;;;;;21.55;15.55;;;;;;;28.31;42.96;99848.72;5030625;28;20058;-37
2022/05/25 10:55:50;;;;;;;22.85;17.00;;;;;;;28.91;42.74;99843.59;5031069;28;20117;-36
2022/05/25 10:58:31;;;;;;;21.75;16.65;;;;;;;29.28;41.43;99855.78;5027479;28;20101;-39
2022/05/25 11:01:33;;;;;;;22.98;17.10;;;;;;;29.96;41.11;99860.59;5030100;28;20516;-37
2022/05/25 11:04:05;;;;;;;25.98;16.95;;;;;;;29.54;42.57;99849.44;5030910;28;20021;-38
2022/05/25 11:06:47;;;;;;;22.67;15.98;;;;;;;29.88;41.00;99853.22;5029548;28;20067;-37
2022/05/25 11:09:49;;;;;;;20.70;16.10;;;;;;;30.85;38.72;99857.72;5029967;28;20147;-37
2022/05/25 11:12:29;;;;;;;23.40;16.45;;;;;;;30.51;39.63;99845.88;5030473;28;20026;-38
2022/05/25 11:15:03;;;;;;;22.88;16.45;;;;;;;29.94;40.97;99849.94;5030571;28;20700;-38
2022/05/25 11:17:50;;;;;;;23.15;17.25;;;;;;;29.75;40.84;99853.09;5028510;28;20444;-38
2022/05/25 11:20:38;;;;;;;21.15;17.13;;;;;;;29.77;40.24;99847.28;5030231;28;20033;-37
2022/05/25 11:23:39;;;;;;;21.75;16.75;;;;;;;27.99;43.64;99842.53;5030244;28;20118;-37
2022/05/25 11:26:16;;;;;;;25.73;17.58;;;;;;;28.11;44.05;99835.66;5029489;28;20261;-37
2022/05/25 11:29:15;;;;;;;23.02;15.88;;;;;;;28.58;42.34;99830.44;5030147;28;20025;-37
2022/05/25 11:31:52;;;;;;;24.35;17.50;;;;;;;28.76;42.39;99818.31;5029982;28;20045;-38
2022/05/25 11:34:40;;;;;;;22.50;17.10;;;;;;;28.90;41.44;99828.28;5030689;28;20017;-38
2022/05/25 11:37:14;;;;;;;21.55;16.55;;;;;;;28.79;42.02;99822.38;5029952;28;20042;-39
2022/05/25 11:39:46;;;;;;;24.17;17.08;;;;;;;28.78;42.39;99813.31;5029158;28;20397;-38
2022/05/25 11:42:42;;;;;;;19.42;16.00;;;;;;;28.70;42.86;99805.94;5030655;28;20326;-37
2022/05/25 11:45:32;;;;;;;24.23;17.90;;;;;;;29.75;41.51;99808.41;5029908;28;20052;-38
2022/05/25 11:48:53;;;;;;;18.17;15.57;;;;;;;30.38;38.40;99820.28;5029768;28;20041;-39
2022/05/25 11:51:25;;;;;;;21.30;15.85;;;;;;;29.24;41.46;99805.53;5029517;28;20029;-38
2022/05/25 11:53:55;;;;;;;22.70;17.05;;;;;;;28.41;44.10;99823.78;5029668;28;20117;-38
2022/05/25 11:57:08;;;;;;;20.02;16.38;;;;;;;28.41;44.03;99831.19;5029421;28;20079;-39
2022/05/25 11:59:36;;;;;;;20.42;16.25;;;;;;;27.97;44.00;99828.38;5024346;28;20060;-38
2022/05/25 12:02:39;;;;;;;20.57;16.57;;;;;;;28.82;42.18;99817.03;5029393;28;20432;-38
2022/05/25 12:05:22;;;;;;;22.42;15.85;;;;;;;29.43;40.59;99816.09;5029220;28;20280;-37
2022/05/25 12:07:47;;;;;;;24.60;16.35;;;;;;;29.70;40.20;99814.06;5045997;28;20021;-39
2022/05/25 12:10:28;;;;;;;22.92;17.30;;;;;;;29.81;40.72;99799.66;5049132;28;20545;-37